createdAt,value
2023-03-05T00:01:09.867Z,102113.34
2023-03-05T00:03:37.220Z,102079.00
2023-03-05T00:06:04.204Z,102096.94
2023-03-05T00:08:31.920Z,102107.06
2023-03-05T00:11:00.302Z,102100.94
2023-03-05T00:13:27.164Z,102063.25
2023-03-05T00:15:54.150Z,102085.44
2023-03-05T00:18:21.869Z,102092.16
2023-03-05T00:20:49.364Z,102085.09
2023-03-05T00:23:16.705Z,102074.81
2023-03-05T00:25:43.655Z,102052.63
2023-03-05T00:28:10.639Z,102056.97
2023-03-05T00:30:37.293Z,102068.72
2023-03-05T00:33:04.258Z,102070.38
2023-03-05T00:35:31.126Z,102056.66
2023-03-05T00:37:58.275Z,102037.00
2023-03-05T00:40:25.088Z,102063.41
2023-03-05T00:42:51.978Z,102048.84
2023-03-05T00:45:18.744Z,102035.06
2023-03-05T00:47:45.427Z,102024.03
2023-03-05T00:50:12.291Z,102031.63
2023-03-05T00:52:39.138Z,101980.44
2023-03-05T00:55:06.293Z,102025.47
2023-03-05T00:57:33.016Z,102019.31
2023-03-05T00:59:59.738Z,102039.91
2023-03-05T01:02:26.607Z,102014.31
2023-03-05T01:04:53.428Z,102015.09
2023-03-05T01:07:20.128Z,101948.44
2023-03-05T01:09:47.012Z,101953.56
2023-03-05T01:12:13.677Z,101974.09
2023-03-05T01:14:40.381Z,101989.44
2023-03-05T01:17:08.059Z,102035.56
2023-03-05T01:19:34.938Z,101951.84
2023-03-05T01:22:01.577Z,102014.06
2023-03-05T01:24:28.340Z,102008.06
2023-03-05T01:26:55.195Z,102011.63
2023-03-05T01:29:21.881Z,102017.72
2023-03-05T01:31:48.617Z,102018.47
2023-03-05T01:34:15.985Z,102001.97
2023-03-05T01:36:42.691Z,102003.75
2023-03-05T01:39:09.596Z,101996.88
2023-03-05T01:41:36.557Z,101991.63
2023-03-05T01:44:03.465Z,101927.03
2023-03-05T01:46:38.918Z,101997.00
2023-03-05T01:49:27.855Z,101992.00
2023-03-05T01:52:03.304Z,101988.72
2023-03-05T01:54:35.284Z,101970.81
2023-03-05T01:57:09.712Z,101977.69
2023-03-05T01:59:39.270Z,101959.84
2023-03-05T02:02:08.015Z,101968.69
2023-03-05T02:04:43.312Z,101971.19
2023-03-05T02:07:11.742Z,101946.34
2023-03-05T02:09:40.320Z,101949.63
2023-03-05T02:12:08.285Z,101963.25
2023-03-05T02:14:35.903Z,101953.03
2023-03-05T02:17:02.828Z,101929.97
2023-03-05T02:19:29.597Z,101950.31
2023-03-05T02:21:56.369Z,101913.53
2023-03-05T02:24:36.590Z,101936.50
2023-03-05T02:27:05.007Z,101946.94
2023-03-05T02:29:33.801Z,101919.50
2023-03-05T02:32:01.829Z,101941.09
2023-03-05T02:34:28.624Z,101914.56
2023-03-05T02:36:55.643Z,101935.91
2023-03-05T02:39:22.669Z,101888.22
2023-03-05T02:41:49.504Z,101908.19
2023-03-05T02:44:16.201Z,101884.28
2023-03-05T02:46:43.124Z,101875.56
2023-03-05T02:49:09.959Z,101909.75
2023-03-05T02:51:36.637Z,101880.56
2023-03-05T02:54:03.563Z,101905.31
2023-03-05T02:56:30.250Z,101907.78
2023-03-05T02:58:56.955Z,101901.88
2023-03-05T03:01:23.854Z,101906.06
2023-03-05T03:03:50.548Z,101890.59
2023-03-05T03:06:17.185Z,101895.47
2023-03-05T03:08:43.955Z,101849.88
2023-03-05T03:11:14.755Z,101883.19
2023-03-05T03:13:41.987Z,101877.75
2023-03-05T03:16:13.062Z,101883.00
2023-03-05T03:18:39.965Z,101880.25
2023-03-05T03:21:07.085Z,101840.25
2023-03-05T03:23:34.536Z,101872.38
2023-03-05T03:26:01.272Z,101851.22
2023-03-05T03:28:27.964Z,101862.44
2023-03-05T03:30:54.825Z,101838.53
2023-03-05T03:33:21.545Z,101835.28
2023-03-05T03:35:48.249Z,101846.63
2023-03-05T03:38:15.216Z,101828.72
2023-03-05T03:40:42.456Z,101801.53
2023-03-05T03:43:09.417Z,101795.75
2023-03-05T03:45:39.905Z,101837.50
2023-03-05T03:48:06.543Z,101851.16
2023-03-05T03:50:33.275Z,101847.72
2023-03-05T03:53:00.124Z,101807.56
2023-03-05T03:55:26.939Z,101831.41
2023-03-05T03:57:53.697Z,101827.16
2023-03-05T04:00:21.045Z,101822.81
2023-03-05T04:02:47.900Z,101828.84
2023-03-05T04:05:14.643Z,101828.06
2023-03-05T04:07:41.547Z,101821.44
2023-03-05T04:10:09.045Z,101817.03
2023-03-05T04:12:35.748Z,101811.94
2023-03-05T04:15:02.532Z,101811.81
2023-03-05T04:17:29.177Z,101790.50
2023-03-05T04:19:55.849Z,101792.69
2023-03-05T04:22:22.895Z,101814.16
2023-03-05T04:24:49.893Z,101822.56
2023-03-05T04:27:16.538Z,101824.00
2023-03-05T04:29:43.320Z,101788.97
2023-03-05T04:32:10.483Z,101814.50
2023-03-05T04:34:38.069Z,101814.47
2023-03-05T04:37:04.850Z,101782.97
2023-03-05T04:39:31.845Z,101797.34
2023-03-05T04:41:58.533Z,101774.47
2023-03-05T04:44:26.144Z,101784.69
2023-03-05T04:46:53.009Z,101788.91
2023-03-05T04:49:19.649Z,101709.81
2023-03-05T04:51:46.447Z,101758.09
2023-03-05T04:54:13.091Z,101784.41
2023-03-05T04:56:39.797Z,101800.69
2023-03-05T04:59:06.632Z,101767.31
2023-03-05T05:01:35.215Z,101778.41
2023-03-05T05:04:02.252Z,101791.91
2023-03-05T05:06:29.149Z,101777.47
2023-03-05T05:08:55.848Z,101748.47
2023-03-05T05:11:22.532Z,101778.41
2023-03-05T05:13:49.384Z,101780.88
2023-03-05T05:16:16.337Z,101757.97
2023-03-05T05:18:43.086Z,101750.16
2023-03-05T05:21:12.083Z,101786.78
2023-03-05T05:23:39.422Z,101785.09
2023-03-05T05:26:07.865Z,101800.69
2023-03-05T05:28:35.837Z,101804.94
2023-03-05T05:31:07.525Z,101802.50
2023-03-05T05:33:34.242Z,101732.78
2023-03-05T05:36:03.753Z,101767.59
2023-03-05T05:38:30.518Z,101787.19
2023-03-05T05:41:11.964Z,101770.19
2023-03-05T05:43:39.219Z,101770.16
2023-03-05T05:46:08.998Z,101771.59
2023-03-05T05:48:36.607Z,101774.94
2023-03-05T05:51:12.515Z,101773.28
2023-03-05T05:53:39.769Z,101769.69
2023-03-05T05:56:09.169Z,101776.72
2023-03-05T05:58:37.965Z,101766.22
2023-03-05T06:01:16.681Z,101778.41
2023-03-05T06:03:43.723Z,101768.16
2023-03-05T06:06:12.100Z,101770.78
2023-03-05T06:08:39.433Z,101764.91
2023-03-05T06:11:07.196Z,101769.16
2023-03-05T06:13:34.446Z,101761.63
2023-03-05T06:16:05.221Z,101754.09
2023-03-05T06:18:33.893Z,101757.44
2023-03-05T06:21:05.352Z,101762.59
2023-03-05T06:23:32.729Z,101758.34
2023-03-05T06:26:01.084Z,101761.91
2023-03-05T06:28:28.982Z,101749.94
2023-03-05T06:31:21.964Z,101747.31
2023-03-05T06:33:49.876Z,101753.38
2023-03-05T06:36:19.027Z,101753.25
2023-03-05T06:38:48.370Z,101754.94
2023-03-05T06:41:18.457Z,101755.88
2023-03-05T06:43:47.759Z,101713.91
2023-03-05T06:46:19.935Z,101753.25
2023-03-05T06:48:47.529Z,101712.38
2023-03-05T06:51:23.380Z,101747.84
2023-03-05T06:53:51.160Z,101707.91
2023-03-05T06:56:19.052Z,101749.50
2023-03-05T06:58:48.295Z,101752.00
2023-03-05T07:01:15.823Z,101727.31
2023-03-05T07:03:42.921Z,101729.47
2023-03-05T07:06:13.098Z,101748.78
2023-03-05T07:08:39.998Z,101745.13
2023-03-05T07:11:11.892Z,101748.41
2023-03-05T07:13:38.776Z,101738.69
2023-03-05T07:16:10.832Z,101732.53
2023-03-05T07:18:37.593Z,101696.50
2023-03-05T07:21:06.330Z,101746.47
2023-03-05T07:23:34.269Z,101731.56
2023-03-05T07:26:02.591Z,101742.47
2023-03-05T07:28:29.387Z,101734.59
2023-03-05T07:31:01.608Z,101717.03
2023-03-05T07:33:28.903Z,101728.50
2023-03-05T07:35:56.867Z,101722.50
2023-03-05T07:38:23.851Z,101728.06
2023-03-05T07:40:51.002Z,101728.44
2023-03-05T07:43:18.095Z,101728.94
2023-03-05T07:45:46.552Z,101738.97
2023-03-05T07:48:17.102Z,101717.97
2023-03-05T07:50:44.045Z,101734.00
2023-03-05T07:53:11.239Z,101731.03
2023-03-05T07:55:45.692Z,101725.47
2023-03-05T07:58:13.752Z,101731.06
2023-03-05T08:00:41.078Z,101724.41
2023-03-05T08:03:08.242Z,101723.91
2023-03-05T08:05:35.072Z,101725.13
2023-03-05T08:08:01.724Z,101702.63
2023-03-05T08:10:28.516Z,101714.06
2023-03-05T08:12:55.389Z,101680.09
2023-03-05T08:15:22.237Z,101717.03
2023-03-05T08:17:48.973Z,101698.31
2023-03-05T08:20:15.809Z,101713.28
2023-03-05T08:22:42.678Z,101709.41
2023-03-05T08:25:09.706Z,101698.81
2023-03-05T08:27:45.100Z,101649.47
2023-03-05T08:30:18.484Z,101696.56
2023-03-05T08:32:45.400Z,101695.03
2023-03-05T08:35:12.407Z,101709.47
2023-03-05T08:37:39.225Z,101702.34
2023-03-05T08:40:06.757Z,101678.25
2023-03-05T08:42:33.508Z,101689.94
2023-03-05T08:45:00.214Z,101685.72
2023-03-05T08:47:27.535Z,101640.38
2023-03-05T08:49:58.459Z,101678.59
2023-03-05T08:52:27.474Z,101698.66
2023-03-05T08:54:54.386Z,101656.03
2023-03-05T08:57:21.239Z,101697.41
2023-03-05T08:59:48.559Z,101670.41
2023-03-05T09:02:15.320Z,101673.38
2023-03-05T09:04:42.067Z,101688.53
2023-03-05T09:07:08.991Z,101678.03
2023-03-05T09:09:36.588Z,101660.69
2023-03-05T09:12:03.512Z,101679.19
2023-03-05T09:14:30.423Z,101658.66
2023-03-05T09:16:57.869Z,101680.97
2023-03-05T09:19:25.022Z,101674.41
2023-03-05T09:21:52.168Z,101666.53
2023-03-05T09:24:18.975Z,101650.00
2023-03-05T09:26:45.704Z,101654.53
2023-03-05T09:29:12.644Z,101641.47
2023-03-05T09:31:39.966Z,101661.41
2023-03-05T09:34:08.261Z,101645.97
2023-03-05T09:36:35.252Z,101665.81
2023-03-05T09:39:04.110Z,101654.97
2023-03-05T09:41:39.776Z,101676.03
2023-03-05T09:44:31.332Z,101682.22
2023-03-05T09:47:32.400Z,101683.44
2023-03-05T09:50:04.050Z,101682.53
2023-03-05T09:52:40.074Z,101676.41
2023-03-05T10:13:38.506Z,101648.31
2023-03-05T10:16:43.528Z,101670.44
2023-03-05T10:19:46.248Z,101660.75
2023-03-05T10:22:28.071Z,101651.50
2023-03-05T10:25:20.697Z,101640.31
2023-03-05T10:27:56.949Z,101625.38
2023-03-05T10:30:29.303Z,101626.03
2023-03-05T10:33:20.662Z,101628.56
2023-03-05T10:36:11.249Z,101611.47
2023-03-05T10:38:40.669Z,101623.22
2023-03-05T10:41:32.341Z,101546.00
2023-03-05T10:44:09.752Z,101617.34
2023-03-05T10:46:38.888Z,101599.00
2023-03-05T10:49:20.479Z,101606.72
2023-03-05T10:52:06.858Z,101612.75
2023-03-05T10:54:35.928Z,101612.59
2023-03-05T10:57:20.594Z,101577.94
2023-03-05T11:00:01.213Z,101594.50
2023-03-05T11:02:28.238Z,101488.88
2023-03-05T11:04:54.961Z,101549.00
2023-03-05T11:07:22.724Z,101579.88
2023-03-05T11:10:06.829Z,101568.47
2023-03-05T11:12:39.048Z,101538.38
2023-03-05T11:15:15.254Z,101563.78
2023-03-05T11:18:03.079Z,101537.22
2023-03-05T11:20:37.428Z,101509.94
2023-03-05T11:23:11.989Z,101547.03
2023-03-05T11:26:02.316Z,101548.13
2023-03-05T11:28:41.164Z,101545.22
2023-03-05T11:31:21.906Z,101536.38
2023-03-05T11:34:03.348Z,101535.13
2023-03-05T11:36:42.583Z,101527.75
2023-03-05T11:39:17.652Z,101523.38
2023-03-05T11:41:49.495Z,101500.97
2023-03-05T11:44:43.043Z,101469.06
2023-03-05T11:47:21.889Z,101515.41
2023-03-05T11:49:52.401Z,101509.75
2023-03-05T11:52:25.105Z,101506.78
2023-03-05T11:55:11.357Z,101507.44
2023-03-05T11:58:08.606Z,101500.47
2023-03-05T12:00:39.091Z,101499.19
2023-03-05T12:03:14.264Z,101493.06
2023-03-05T12:05:46.639Z,101488.63
2023-03-05T12:08:17.467Z,101489.25
2023-03-05T12:10:44.406Z,101447.00
2023-03-05T12:13:33.705Z,101484.00
2023-03-05T12:16:20.223Z,101470.69
2023-03-05T12:18:58.364Z,101468.72
2023-03-05T12:21:38.047Z,101467.00
2023-03-05T12:24:27.455Z,101462.06
2023-03-05T12:27:04.379Z,101468.78
2023-03-05T12:29:39.875Z,101462.22
2023-03-05T12:32:28.973Z,101341.06
2023-03-05T12:35:22.360Z,101438.59
2023-03-05T12:37:51.915Z,101446.31
2023-03-05T12:40:29.572Z,101448.75
2023-03-05T12:42:59.481Z,101443.59
2023-03-05T12:45:30.804Z,101439.41
2023-03-05T12:47:57.648Z,101437.09
2023-03-05T12:50:27.208Z,101432.03
2023-03-05T12:52:54.971Z,101431.22
2023-03-05T12:55:33.589Z,101426.88
2023-03-05T12:58:05.190Z,101429.50
2023-03-05T13:00:43.485Z,101408.50
2023-03-05T13:03:24.372Z,101414.53
2023-03-05T13:05:54.733Z,101420.84
2023-03-05T13:08:35.490Z,101415.84
2023-03-05T13:11:03.389Z,101410.47
2023-03-05T13:13:34.978Z,101411.59
2023-03-05T13:16:02.781Z,101405.78
2023-03-05T13:18:32.917Z,101379.56
2023-03-05T13:21:08.896Z,101407.66
2023-03-05T13:23:35.923Z,101370.47
2023-03-05T13:26:18.974Z,101398.78
2023-03-05T13:29:19.332Z,101392.66
2023-03-05T13:32:04.451Z,101390.78
2023-03-05T13:34:46.598Z,101373.88
2023-03-05T13:37:14.073Z,101376.34
2023-03-05T13:39:49.119Z,101380.34
2023-03-05T13:42:32.558Z,101339.28
2023-03-05T13:45:20.655Z,101353.34
2023-03-05T13:47:59.587Z,101376.34
2023-03-05T13:50:34.712Z,101355.47
2023-03-05T13:53:16.004Z,101354.94
2023-03-05T13:55:42.925Z,101348.91
2023-03-05T13:58:55.003Z,101358.31
2023-03-05T14:01:33.062Z,101344.16
2023-03-05T14:04:23.787Z,101332.53
2023-03-05T14:07:06.966Z,101351.88
2023-03-05T14:09:39.549Z,101340.69
2023-03-05T14:12:22.344Z,101324.97
2023-03-05T14:14:49.558Z,101332.66
2023-03-05T14:17:39.538Z,101326.84
2023-03-05T14:20:19.184Z,101335.09
2023-03-05T14:22:50.490Z,101281.88
2023-03-05T14:25:39.857Z,101305.09
2023-03-05T14:28:19.050Z,101314.59
2023-03-05T14:30:47.705Z,101310.19
2023-03-05T14:33:15.090Z,101280.22
2023-03-05T14:35:49.416Z,101290.09
2023-03-05T14:38:23.579Z,101296.66
2023-03-05T14:40:50.960Z,101291.06
2023-03-05T14:43:17.812Z,101271.22
2023-03-05T14:45:44.821Z,101292.22
2023-03-05T14:48:13.746Z,101275.97
2023-03-05T14:50:47.140Z,101280.81
2023-03-05T14:53:18.079Z,101230.38
2023-03-05T14:55:56.166Z,101274.16
2023-03-05T14:58:28.753Z,101252.50
2023-03-05T15:00:55.778Z,101246.41
2023-03-05T15:03:23.511Z,101271.94
2023-03-05T15:05:53.775Z,101265.19
2023-03-05T15:08:23.772Z,101274.25
2023-03-05T15:10:50.457Z,101231.84
2023-03-05T15:13:17.825Z,101245.78
2023-03-05T15:15:47.022Z,101239.44
2023-03-05T15:18:16.533Z,101248.00
2023-03-05T15:20:44.182Z,101262.03
2023-03-05T15:23:12.801Z,101222.44
2023-03-05T15:25:40.362Z,101247.44
2023-03-05T15:28:07.712Z,101233.84
2023-03-05T15:30:38.027Z,101247.03
2023-03-05T15:33:07.960Z,101232.00
2023-03-05T15:35:35.403Z,101216.16
2023-03-05T15:38:02.230Z,101243.63
2023-03-05T15:40:29.577Z,101236.75
2023-03-05T15:42:58.134Z,101234.19
2023-03-05T15:45:25.203Z,101212.16
2023-03-05T15:47:53.160Z,101226.53
2023-03-05T15:50:21.620Z,101201.81
2023-03-05T15:52:48.569Z,101215.75
2023-03-05T15:55:15.302Z,101203.53
2023-03-05T15:57:48.028Z,101199.50
2023-03-05T16:00:17.861Z,101226.53
2023-03-05T16:02:44.638Z,101195.50
2023-03-05T16:05:12.016Z,101180.31
2023-03-05T16:07:42.020Z,101205.53
2023-03-05T16:10:13.703Z,101193.91
2023-03-05T16:12:43.062Z,101177.97
2023-03-05T16:15:16.610Z,101183.59
2023-03-05T16:17:45.519Z,101192.97
2023-03-05T16:20:13.275Z,101179.69
2023-03-05T16:22:40.385Z,101167.84
2023-03-05T16:25:07.496Z,101157.69
2023-03-05T16:27:34.778Z,101162.97
2023-03-05T16:30:01.862Z,101195.25
2023-03-05T16:32:28.757Z,101177.53
2023-03-05T16:34:55.550Z,101172.97
2023-03-05T16:37:23.984Z,101168.88
2023-03-05T16:39:51.898Z,101180.00
2023-03-05T16:42:18.864Z,101137.75
2023-03-05T16:44:47.459Z,101141.72
2023-03-05T16:47:14.312Z,101140.25
2023-03-05T16:49:41.139Z,101165.78
2023-03-05T16:52:18.443Z,101157.53
2023-03-05T16:54:46.389Z,101158.19
2023-03-05T16:57:13.161Z,101103.44
2023-03-05T16:59:40.261Z,101124.00
2023-03-05T17:02:07.102Z,101147.56
2023-03-05T17:04:34.023Z,101127.31
2023-03-05T17:07:00.712Z,101142.53
2023-03-05T17:09:27.510Z,101126.63
2023-03-05T17:11:54.938Z,101149.28
2023-03-05T17:14:21.973Z,101113.97
2023-03-05T17:16:48.784Z,101151.53
2023-03-05T17:19:15.917Z,101125.63
2023-03-05T17:21:42.920Z,101140.47
2023-03-05T17:24:10.893Z,101113.72
2023-03-05T17:26:38.212Z,101135.22
2023-03-05T17:29:05.627Z,101143.28
2023-03-05T17:31:32.459Z,101129.78
2023-03-05T17:33:59.440Z,101138.25
2023-03-05T17:36:26.531Z,101134.88
2023-03-05T17:38:54.144Z,101134.88
2023-03-05T17:41:22.051Z,101137.69
2023-03-05T17:43:48.900Z,101120.22
2023-03-05T17:46:16.191Z,101135.53
2023-03-05T17:48:43.111Z,101125.47
2023-03-05T17:51:12.936Z,101129.97
2023-03-05T17:53:40.333Z,101123.41
2023-03-05T17:56:11.455Z,101127.81
2023-03-05T17:58:39.183Z,101069.88
2023-03-05T18:01:06.992Z,101126.69
2023-03-05T18:03:34.144Z,101057.66
2023-03-05T18:06:00.943Z,101125.25
2023-03-05T18:08:27.929Z,101101.78
2023-03-05T18:10:54.868Z,101107.44
2023-03-05T18:13:21.940Z,101124.16
2023-03-05T18:15:48.705Z,101102.06
2023-03-05T18:18:16.792Z,101111.38
2023-03-05T18:20:44.402Z,101105.91
2023-03-05T18:23:15.296Z,101070.25
2023-03-05T18:25:42.582Z,101060.47
2023-03-05T18:28:11.805Z,101102.16
2023-03-05T18:30:40.713Z,101087.13
2023-03-05T18:33:09.096Z,101091.44
2023-03-05T18:35:36.853Z,101094.44
2023-03-05T18:38:03.517Z,101085.38
2023-03-05T18:40:32.804Z,101090.00
2023-03-05T18:43:01.443Z,101089.50
2023-03-05T18:45:29.056Z,101087.13
2023-03-05T18:47:56.886Z,101041.00
2023-03-05T18:50:26.338Z,101006.34
2023-03-05T18:52:53.801Z,101069.91
2023-03-05T18:55:27.460Z,101074.03
2023-03-05T18:57:54.719Z,101070.94
2023-03-05T19:00:28.021Z,101054.28
2023-03-05T19:02:55.690Z,101065.34
2023-03-05T19:05:23.153Z,101075.69
2023-03-05T19:07:49.804Z,101041.53
2023-03-05T19:10:17.732Z,101010.94
2023-03-05T19:13:05.750Z,100998.41
2023-03-05T19:15:32.998Z,101048.63
2023-03-05T19:17:59.778Z,101045.78
2023-03-05T19:20:26.538Z,101028.88
2023-03-05T19:22:55.823Z,101034.59
2023-03-05T19:25:22.734Z,100979.84
2023-03-05T19:27:49.585Z,101044.25
2023-03-05T19:30:16.681Z,101035.78
2023-03-05T19:32:43.554Z,101023.78
2023-03-05T19:35:14.919Z,101035.97
2023-03-05T19:37:41.894Z,101026.50
2023-03-05T19:40:09.448Z,101027.50
2023-03-05T19:42:38.104Z,101007.25
2023-03-05T19:45:06.452Z,101005.19
2023-03-05T19:47:33.112Z,101007.91
2023-03-05T19:49:59.847Z,100985.84
2023-03-05T19:52:27.795Z,100989.06
2023-03-05T19:54:54.559Z,100994.03
2023-03-05T19:57:21.270Z,101008.59
2023-03-05T19:59:52.182Z,100961.66
2023-03-05T20:02:21.698Z,100978.84
2023-03-05T20:04:49.506Z,100986.44
2023-03-05T20:07:16.835Z,100981.34
2023-03-05T20:09:43.697Z,100984.75
2023-03-05T20:12:10.896Z,100940.81
2023-03-05T20:14:38.255Z,100983.97
2023-03-05T20:17:04.997Z,100986.28
2023-03-05T20:19:31.891Z,100942.16
2023-03-05T20:21:58.890Z,100978.41
2023-03-05T20:24:25.558Z,100952.22
2023-03-05T20:26:52.436Z,100968.88
2023-03-05T20:29:19.362Z,100939.13
2023-03-05T20:31:46.847Z,100932.09
2023-03-05T20:34:15.775Z,100960.66
2023-03-05T20:36:43.010Z,100929.13
2023-03-05T20:39:10.187Z,100950.09
2023-03-05T20:41:38.905Z,100956.66
2023-03-05T20:44:07.228Z,100955.81
2023-03-05T20:46:36.699Z,100925.03
2023-03-05T20:49:04.608Z,100899.38
2023-03-05T20:51:36.990Z,100871.59
2023-03-05T20:54:06.852Z,100950.22
2023-03-05T20:56:35.193Z,100946.66
2023-03-05T20:59:05.464Z,100944.81
2023-03-05T21:01:34.012Z,100935.25
2023-03-05T21:04:02.127Z,100888.78
2023-03-05T21:06:30.469Z,100930.94
2023-03-05T21:08:57.940Z,100928.25
2023-03-05T21:11:24.914Z,100908.44
2023-03-05T21:13:51.819Z,100904.91
2023-03-05T21:16:21.388Z,100910.81
2023-03-05T21:18:48.863Z,100887.06
2023-03-05T21:21:15.605Z,100875.84
2023-03-05T21:23:42.568Z,100886.91
2023-03-05T21:26:09.301Z,100863.75
2023-03-05T21:28:36.211Z,100880.56
2023-03-05T21:31:09.037Z,100888.81
2023-03-05T21:33:36.585Z,100857.50
2023-03-05T21:36:05.582Z,100873.91
2023-03-05T21:38:36.293Z,100840.84
2023-03-05T21:41:04.399Z,100861.09
2023-03-05T21:43:31.847Z,100843.88
2023-03-05T21:46:01.127Z,100867.66
2023-03-05T21:48:28.191Z,100793.44
2023-03-05T21:50:55.714Z,100871.22
2023-03-05T21:53:23.319Z,100848.28
2023-03-05T21:56:11.044Z,100860.72
2023-03-05T21:58:37.763Z,100846.22
2023-03-05T22:01:04.788Z,100782.59
2023-03-05T22:03:31.685Z,100834.72
2023-03-05T22:05:58.471Z,100841.28
2023-03-05T22:08:25.318Z,100813.53
2023-03-05T22:10:52.612Z,100793.94
2023-03-05T22:13:20.587Z,100794.53
2023-03-05T22:15:59.580Z,100832.66
2023-03-05T22:18:29.354Z,100823.09
2023-03-05T22:20:56.953Z,100814.59
2023-03-05T22:23:27.407Z,100819.63
2023-03-05T22:25:58.801Z,100797.34
2023-03-05T22:28:26.493Z,100796.31
2023-03-05T22:30:53.725Z,100806.44
2023-03-05T22:33:23.029Z,100803.91
2023-03-05T22:35:50.298Z,100788.38
2023-03-05T22:38:17.517Z,100789.00
2023-03-05T22:40:46.404Z,100755.47
2023-03-05T22:43:14.311Z,100786.41
2023-03-05T22:45:41.738Z,100783.78
2023-03-05T22:48:11.920Z,100766.91
2023-03-05T22:50:39.664Z,100710.91
2023-03-05T22:53:06.973Z,100778.53
2023-03-05T22:55:33.804Z,100758.94
2023-03-05T22:58:00.423Z,100758.31
2023-03-05T23:00:27.322Z,100747.25
2023-03-05T23:02:54.286Z,100766.72
2023-03-05T23:05:21.267Z,100744.53
2023-03-05T23:07:48.249Z,100764.88
2023-03-05T23:10:18.298Z,100760.34
2023-03-05T23:12:50.257Z,100756.91
2023-03-05T23:15:22.748Z,100753.53
2023-03-05T23:17:50.027Z,100701.75
2023-03-05T23:20:20.946Z,100747.63
2023-03-05T23:22:49.036Z,100729.81
2023-03-05T23:25:16.727Z,100744.16
2023-03-05T23:27:43.791Z,100731.34
2023-03-05T23:30:19.638Z,100741.66
2023-03-05T23:32:58.762Z,100741.75
2023-03-05T23:35:32.360Z,100694.06
2023-03-05T23:38:00.971Z,100679.47
2023-03-05T23:40:48.187Z,100683.69
2023-03-05T23:43:17.082Z,100669.16
2023-03-05T23:45:48.056Z,100706.06
2023-03-05T23:48:16.881Z,100711.31
2023-03-05T23:50:46.016Z,100690.34
2023-03-05T23:53:20.963Z,100712.91
2023-03-05T23:55:48.807Z,100689.19
2023-03-05T23:58:16.737Z,100704.97
